createdAt,value
2018-02-18T00:00:28.176Z,20.73
2018-02-18T00:03:02.019Z,19.67
2018-02-18T00:05:35.960Z,18.57
2018-02-18T00:08:09.734Z,19.57
2018-02-18T00:10:44.365Z,19.77
2018-02-18T00:13:19.379Z,19.33
2018-02-18T00:15:53.372Z,19.90
2018-02-18T00:18:27.891Z,18.73
2018-02-18T00:21:01.995Z,20.77
2018-02-18T00:23:35.844Z,19.53
2018-02-18T00:26:10.150Z,18.40
2018-02-18T00:28:43.983Z,19.57
2018-02-18T00:31:18.671Z,19.87
2018-02-18T00:33:53.190Z,19.90
2018-02-18T00:36:27.287Z,20.63
2018-02-18T00:39:01.178Z,19.40
2018-02-18T00:41:35.588Z,19.63
2018-02-18T00:44:09.560Z,20.77
2018-02-18T00:46:43.204Z,19.70
2018-02-18T00:49:17.293Z,19.80
2018-02-18T00:51:51.902Z,20.60
2018-02-18T00:54:26.695Z,19.40
2018-02-18T00:57:00.908Z,19.77
2018-02-18T00:59:34.710Z,19.87
2018-02-18T01:02:09.341Z,18.97
2018-02-18T01:04:42.998Z,19.30
2018-02-18T01:07:16.834Z,20.23
2018-02-18T01:09:50.600Z,19.97
2018-02-18T01:12:24.314Z,19.97
2018-02-18T01:14:58.686Z,18.33
2018-02-18T01:17:33.283Z,18.93
2018-02-18T01:20:08.106Z,19.37
2018-02-18T01:22:41.876Z,18.27
2018-02-18T01:25:15.583Z,19.20
2018-02-18T01:27:50.137Z,19.87
2018-02-18T01:30:24.215Z,19.13
2018-02-18T01:32:57.981Z,20.03
2018-02-18T01:35:32.791Z,18.57
2018-02-18T01:38:07.088Z,19.33
2018-02-18T01:40:41.068Z,19.30
2018-02-18T01:43:15.252Z,18.63
2018-02-18T01:45:49.950Z,19.13
2018-02-18T01:48:24.488Z,20.57
2018-02-18T01:50:58.390Z,18.93
2018-02-18T01:53:32.903Z,19.37
2018-02-18T01:56:06.971Z,19.53
2018-02-18T01:58:41.536Z,20.13
2018-02-18T02:01:17.108Z,19.80
2018-02-18T02:03:52.537Z,19.70
2018-02-18T02:06:26.786Z,20.73
2018-02-18T02:09:00.627Z,18.50
2018-02-18T02:11:34.363Z,19.67
2018-02-18T02:14:08.264Z,20.17
2018-02-18T02:16:42.089Z,20.70
2018-02-18T02:19:16.096Z,19.70
2018-02-18T02:21:50.051Z,20.90
2018-02-18T02:24:25.539Z,19.60
2018-02-18T02:26:59.579Z,19.93
2018-02-18T02:29:33.202Z,21.07
2018-02-18T02:32:07.100Z,18.73
2018-02-18T02:34:40.758Z,19.80
2018-02-18T02:37:14.469Z,21.40
2018-02-18T02:39:48.417Z,20.17
2018-02-18T02:42:22.411Z,20.70
2018-02-18T02:44:56.259Z,20.30
2018-02-18T02:47:30.155Z,21.17
2018-02-18T02:50:04.968Z,20.37
2018-02-18T02:52:39.587Z,21.00
2018-02-18T02:55:13.396Z,21.37
2018-02-18T02:57:47.155Z,22.43
2018-02-18T03:00:21.919Z,20.53
2018-02-18T03:02:55.896Z,20.53
2018-02-18T03:05:30.028Z,20.43
2018-02-18T03:08:04.752Z,20.27
2018-02-18T03:10:38.768Z,20.20
2018-02-18T03:13:13.376Z,20.37
2018-02-18T03:15:47.463Z,22.60
2018-02-18T03:18:21.493Z,22.37
2018-02-18T03:20:55.234Z,21.73
2018-02-18T03:23:29.920Z,20.30
2018-02-18T03:26:03.944Z,20.53
2018-02-18T03:28:37.833Z,20.07
2018-02-18T03:31:12.443Z,19.67
2018-02-18T03:33:48.032Z,20.77
2018-02-18T03:36:22.409Z,20.03
2018-02-18T03:38:57.307Z,20.73
2018-02-18T03:41:31.073Z,20.47
2018-02-18T03:44:05.310Z,20.00
2018-02-18T03:46:39.888Z,21.57
2018-02-18T03:49:14.230Z,19.43
2018-02-18T03:51:47.891Z,20.80
2018-02-18T03:54:21.888Z,19.10
2018-02-18T03:56:57.262Z,20.00
2018-02-18T03:59:31.501Z,21.73
2018-02-18T04:02:06.917Z,19.67
2018-02-18T04:04:42.198Z,20.50
2018-02-18T04:07:16.082Z,20.70
2018-02-18T04:09:50.627Z,19.70
2018-02-18T04:12:25.428Z,21.27
2018-02-18T04:14:59.636Z,21.53
2018-02-18T04:17:34.272Z,19.47
2018-02-18T04:20:08.589Z,20.90
2018-02-18T04:22:42.828Z,20.67
2018-02-18T04:25:18.311Z,19.47
2018-02-18T04:27:53.266Z,20.13
2018-02-18T04:30:27.341Z,19.57
2018-02-18T04:33:01.308Z,21.17
2018-02-18T04:35:35.935Z,20.40
2018-02-18T04:38:10.367Z,19.67
2018-02-18T04:40:44.156Z,19.43
2018-02-18T04:43:18.077Z,19.97
2018-02-18T04:45:52.114Z,18.80
2018-02-18T04:48:25.842Z,20.70
2018-02-18T04:50:59.800Z,20.77
2018-02-18T04:53:33.594Z,20.00
2018-02-18T04:56:07.420Z,20.33
2018-02-18T04:58:41.036Z,20.30
2018-02-18T05:01:15.919Z,19.90
2018-02-18T05:03:50.844Z,20.53
2018-02-18T05:06:24.899Z,20.33
2018-02-18T05:08:58.529Z,20.33
2018-02-18T05:11:32.630Z,20.80
2018-02-18T05:14:06.615Z,19.80
2018-02-18T05:16:40.382Z,19.57
2018-02-18T05:19:14.203Z,19.47
2018-02-18T05:21:48.213Z,19.40
2018-02-18T05:24:21.869Z,19.37
2018-02-18T05:26:56.448Z,19.00
2018-02-18T05:29:30.590Z,19.63
2018-02-18T05:32:04.489Z,18.83
2018-02-18T05:34:38.182Z,20.90
2018-02-18T05:37:12.718Z,18.70
2018-02-18T05:39:46.876Z,20.17
2018-02-18T05:42:21.574Z,19.77
2018-02-18T05:44:55.394Z,19.63
2018-02-18T05:47:29.143Z,19.00
2018-02-18T05:50:04.581Z,19.13
2018-02-18T05:52:38.431Z,20.60
2018-02-18T05:55:12.486Z,20.20
2018-02-18T05:57:46.415Z,19.87
2018-02-18T06:00:21.043Z,19.53
2018-02-18T06:02:55.194Z,18.60
2018-02-18T06:05:28.980Z,19.83
2018-02-18T06:08:02.914Z,20.73
2018-02-18T06:10:36.684Z,19.50
2018-02-18T06:13:10.509Z,19.17
2018-02-18T06:15:44.123Z,19.23
2018-02-18T06:18:18.074Z,19.37
2018-02-18T06:20:52.619Z,19.27
2018-02-18T06:23:27.652Z,20.23
2018-02-18T06:26:01.368Z,19.30
2018-02-18T06:28:36.806Z,19.67
2018-02-18T06:31:11.897Z,19.50
2018-02-18T06:33:46.049Z,20.33
2018-02-18T06:36:20.575Z,20.80
2018-02-18T06:38:55.198Z,18.83
2018-02-18T06:41:29.050Z,18.30
2018-02-18T06:44:02.907Z,19.07
2018-02-18T06:46:37.612Z,20.10
2018-02-18T06:49:11.874Z,18.80
2018-02-18T06:51:46.495Z,19.57
2018-02-18T06:54:20.301Z,19.70
2018-02-18T06:56:54.087Z,19.37
2018-02-18T06:59:28.068Z,20.13
2018-02-18T07:02:01.740Z,20.00
2018-02-18T07:04:35.846Z,20.33
2018-02-18T07:07:09.635Z,19.93
2018-02-18T07:09:43.545Z,20.33
2018-02-18T07:12:18.043Z,19.43
2018-02-18T07:14:53.392Z,19.70
2018-02-18T07:17:27.711Z,19.57
2018-02-18T07:20:01.902Z,19.53
2018-02-18T07:22:37.247Z,20.03
2018-02-18T07:25:11.259Z,19.10
2018-02-18T07:27:45.361Z,19.97
2018-02-18T07:30:19.442Z,20.27
2018-02-18T07:32:53.300Z,21.87
2018-02-18T07:35:27.244Z,20.63
2018-02-18T07:38:01.006Z,20.17
2018-02-18T07:40:36.484Z,20.73
2018-02-18T07:43:10.899Z,22.23
2018-02-18T07:45:49.338Z,21.50
2018-02-18T07:48:23.100Z,21.40
2018-02-18T07:50:57.629Z,20.60
2018-02-18T07:53:31.584Z,20.93
2018-02-18T07:56:06.168Z,20.30
2018-02-18T07:58:40.193Z,21.80
2018-02-18T08:01:14.016Z,21.13
2018-02-18T08:03:47.978Z,20.67
2018-02-18T08:06:21.920Z,20.87
2018-02-18T08:08:55.526Z,21.60
2018-02-18T08:11:29.446Z,22.00
2018-02-18T08:14:03.044Z,22.63
2018-02-18T08:16:36.907Z,22.13
2018-02-18T08:19:10.826Z,23.07
2018-02-18T08:21:44.755Z,22.03
2018-02-18T08:24:18.487Z,22.40
2018-02-18T08:26:52.162Z,22.37
2018-02-18T08:29:25.844Z,23.57
2018-02-18T08:31:59.740Z,22.80
2018-02-18T08:34:34.241Z,22.10
2018-02-18T08:37:08.599Z,22.80
2018-02-18T08:39:42.334Z,22.53
2018-02-18T08:42:17.410Z,23.37
2018-02-18T08:44:51.336Z,23.53
2018-02-18T08:47:25.200Z,24.10
2018-02-18T08:50:00.028Z,25.33
2018-02-18T08:52:34.118Z,23.73
2018-02-18T08:55:07.981Z,24.10
2018-02-18T08:57:42.707Z,24.30
2018-02-18T09:00:16.707Z,25.13
2018-02-18T09:02:51.354Z,25.37
2018-02-18T09:05:25.413Z,24.80
2018-02-18T09:07:59.372Z,24.57
2018-02-18T09:10:33.069Z,26.17
2018-02-18T09:13:06.852Z,24.03
2018-02-18T09:15:41.347Z,26.83
2018-02-18T09:18:15.447Z,24.47
2018-02-18T09:20:49.692Z,24.53
2018-02-18T09:23:23.456Z,24.60
2018-02-18T09:25:58.391Z,25.13
2018-02-18T09:28:32.189Z,24.37
2018-02-18T09:31:06.020Z,25.13
2018-02-18T09:33:40.063Z,24.30
2018-02-18T09:36:13.772Z,23.77
2018-02-18T09:38:48.548Z,23.17
2018-02-18T09:41:22.513Z,24.93
2018-02-18T09:43:56.314Z,25.40
2018-02-18T09:46:30.834Z,26.27
2018-02-18T09:49:05.014Z,25.10
2018-02-18T09:51:38.858Z,24.50
2018-02-18T09:54:13.562Z,25.73
2018-02-18T09:56:47.436Z,27.30
2018-02-18T09:59:21.096Z,26.87
2018-02-18T10:01:56.558Z,27.07
2018-02-18T10:04:30.599Z,31.03
2018-02-18T10:07:04.467Z,40.80
2018-02-18T10:09:38.168Z,27.00
2018-02-18T10:12:13.067Z,26.10
2018-02-18T10:14:47.422Z,28.43
2018-02-18T10:17:21.337Z,27.93
2018-02-18T10:19:55.948Z,28.07
2018-02-18T10:22:30.165Z,29.63
2018-02-18T10:25:03.944Z,31.10
2018-02-18T10:27:38.358Z,39.70
2018-02-18T10:30:12.742Z,26.33
2018-02-18T10:32:47.915Z,36.67
2018-02-18T10:35:22.267Z,26.53
2018-02-18T10:37:57.069Z,27.07
2018-02-18T10:40:31.223Z,25.57
2018-02-18T10:43:06.230Z,25.87
2018-02-18T10:45:40.775Z,26.83
2018-02-18T10:48:14.984Z,26.77
2018-02-18T10:50:48.754Z,33.27
2018-02-18T10:53:24.196Z,29.90
2018-02-18T10:55:58.510Z,28.50
2018-02-18T10:58:33.070Z,30.03
2018-02-18T11:01:06.950Z,27.07
2018-02-18T11:03:40.654Z,24.67
2018-02-18T11:06:14.617Z,26.27
2018-02-18T11:08:48.324Z,27.00
2018-02-18T11:11:22.223Z,26.20
2018-02-18T11:13:55.872Z,27.80
2018-02-18T11:16:30.520Z,27.03
2018-02-18T11:19:05.517Z,26.17
2018-02-18T11:21:39.679Z,32.17
2018-02-18T11:24:13.622Z,28.67
2018-02-18T11:26:48.806Z,28.13
2018-02-18T11:29:23.230Z,28.57
2018-02-18T11:31:58.183Z,25.83
2018-02-18T11:34:32.970Z,26.87
2018-02-18T11:37:07.015Z,24.20
2018-02-18T11:39:42.448Z,24.00
2018-02-18T11:42:16.511Z,24.23
2018-02-18T11:44:50.381Z,23.70
2018-02-18T11:47:24.600Z,24.37
2018-02-18T11:49:59.171Z,23.37
2018-02-18T11:52:33.280Z,24.00
2018-02-18T11:55:07.153Z,24.90
2018-02-18T11:57:41.159Z,24.73
2018-02-18T12:00:15.182Z,24.07
2018-02-18T12:02:49.194Z,24.30
2018-02-18T12:05:22.823Z,22.90
2018-02-18T12:07:56.512Z,22.23
2018-02-18T12:10:30.286Z,21.80
2018-02-18T12:13:04.071Z,23.93
2018-02-18T12:15:38.669Z,25.47
2018-02-18T12:18:12.860Z,24.00
2018-02-18T12:20:46.465Z,35.47
2018-02-18T12:23:20.591Z,29.87
2018-02-18T12:25:55.940Z,26.90
2018-02-18T12:28:29.990Z,26.00
2018-02-18T12:31:03.904Z,24.80
2018-02-18T12:33:38.519Z,41.13
2018-02-18T12:36:14.141Z,33.97
2018-02-18T12:38:49.196Z,57.80
2018-02-18T12:41:23.806Z,31.60
2018-02-18T12:43:58.753Z,28.50
2018-02-18T12:46:33.568Z,29.83
2018-02-18T12:49:07.572Z,34.53
2018-02-18T12:51:41.292Z,25.63
2018-02-18T12:54:15.028Z,30.50
2018-02-18T12:56:48.956Z,27.20
2018-02-18T12:59:22.596Z,57.23
2018-02-18T13:01:56.438Z,25.93
2018-02-18T13:04:30.208Z,22.97
2018-02-18T13:07:05.326Z,21.67
2018-02-18T13:09:39.354Z,21.80
2018-02-18T13:12:13.683Z,20.43
2018-02-18T13:14:47.544Z,20.63
2018-02-18T13:17:22.093Z,20.83
2018-02-18T13:19:56.983Z,21.73
2018-02-18T13:22:30.915Z,21.17
2018-02-18T13:25:04.675Z,21.10
2018-02-18T13:27:38.503Z,21.93
2018-02-18T13:30:12.869Z,22.87
2018-02-18T13:32:47.196Z,20.77
2018-02-18T13:35:21.043Z,19.23
2018-02-18T13:37:54.797Z,19.50
2018-02-18T13:40:28.948Z,18.03
2018-02-18T13:43:02.607Z,19.37
2018-02-18T13:45:36.511Z,18.40
2018-02-18T13:48:10.346Z,17.63
2018-02-18T13:50:44.099Z,18.13
2018-02-18T13:53:18.635Z,17.73
2018-02-18T13:55:52.739Z,19.03
2018-02-18T13:58:26.550Z,20.50
2018-02-18T14:01:00.339Z,20.77
2018-02-18T14:03:34.115Z,20.30
2018-02-18T14:06:07.902Z,20.10
2018-02-18T14:08:42.506Z,18.83
2018-02-18T14:11:16.571Z,18.87
2018-02-18T14:13:50.515Z,17.57
2018-02-18T14:16:24.396Z,20.10
2018-02-18T14:18:59.042Z,18.67
2018-02-18T14:21:33.719Z,18.20
2018-02-18T14:24:08.511Z,18.63
2018-02-18T14:26:42.996Z,17.93
2018-02-18T14:29:16.884Z,18.50
2018-02-18T14:31:51.396Z,19.17
2018-02-18T14:34:25.328Z,18.87
2018-02-18T14:37:00.040Z,18.87
2018-02-18T14:39:34.131Z,18.80
2018-02-18T14:42:19.876Z,21.00
2018-02-18T14:45:05.723Z,16.57
2018-02-18T14:47:52.167Z,16.77
2018-02-18T14:53:39.960Z,18.63
2018-02-18T14:59:14.323Z,19.10
2018-02-18T15:01:48.413Z,19.70
2018-02-18T15:04:23.039Z,18.03
2018-02-18T15:06:56.905Z,19.10
2018-02-18T15:09:30.828Z,18.53
2018-02-18T15:12:04.563Z,20.70
2018-02-18T15:14:39.082Z,20.60
2018-02-18T15:17:13.191Z,19.30
2018-02-18T15:19:47.152Z,19.00
2018-02-18T15:22:20.893Z,20.23
2018-02-18T15:24:54.688Z,20.20
2018-02-18T15:27:29.287Z,20.17
2018-02-18T15:30:03.524Z,20.50
2018-02-18T15:32:38.954Z,20.30
2018-02-18T15:35:12.989Z,20.30
2018-02-18T15:37:46.936Z,24.33
2018-02-18T15:40:21.062Z,24.67
2018-02-18T15:42:55.026Z,24.83
2018-02-18T15:45:28.809Z,29.73
2018-02-18T15:48:02.444Z,24.63
2018-02-18T15:50:37.152Z,25.63
2018-02-18T15:53:12.059Z,26.30
2018-02-18T15:55:46.313Z,27.37
2018-02-18T15:58:20.044Z,28.10
2018-02-18T16:00:53.954Z,26.23
2018-02-18T16:03:28.018Z,27.40
2018-02-18T16:06:02.376Z,23.83
2018-02-18T16:08:37.044Z,27.47
2018-02-18T16:11:11.319Z,25.93
2018-02-18T16:13:45.144Z,24.40
2018-02-18T16:16:18.945Z,27.73
2018-02-18T16:18:52.590Z,26.13
2018-02-18T16:21:26.282Z,25.93
2018-02-18T16:24:00.107Z,24.77
2018-02-18T16:26:34.654Z,26.70
2018-02-18T16:29:08.640Z,25.17
2018-02-18T16:31:42.728Z,26.83
2018-02-18T16:34:17.429Z,26.53
2018-02-18T16:36:51.697Z,25.43
2018-02-18T16:39:25.324Z,25.50
2018-02-18T16:41:59.459Z,25.30
2018-02-18T16:44:34.014Z,26.97
2018-02-18T16:47:08.093Z,25.87
2018-02-18T16:49:42.057Z,28.70
2018-02-18T16:52:16.602Z,27.80
2018-02-18T16:54:51.555Z,25.77
2018-02-18T16:57:26.441Z,26.93
2018-02-18T17:00:00.370Z,27.90
2018-02-18T17:02:34.125Z,27.83
2018-02-18T17:05:08.739Z,30.77
2018-02-18T17:07:42.784Z,27.53
2018-02-18T17:10:16.542Z,27.20
2018-02-18T17:12:50.195Z,25.90
2018-02-18T17:15:24.695Z,28.03
2018-02-18T17:17:59.042Z,25.20
2018-02-18T17:20:32.743Z,26.03
2018-02-18T17:23:07.864Z,26.57
2018-02-18T17:25:42.302Z,27.90
2018-02-18T17:28:15.952Z,28.77
2018-02-18T17:30:49.570Z,25.93
2018-02-18T17:33:23.562Z,26.50
2018-02-18T17:35:57.181Z,25.73
2018-02-18T17:38:31.886Z,25.87
2018-02-18T17:41:05.749Z,26.30
2018-02-18T17:43:40.436Z,26.57
2018-02-18T17:46:14.843Z,24.10
2018-02-18T17:48:49.839Z,25.57
2018-02-18T17:51:23.903Z,24.73
2018-02-18T17:53:58.556Z,23.37
2018-02-18T17:56:33.619Z,24.53
2018-02-18T17:59:08.039Z,24.00
2018-02-18T18:01:41.734Z,21.63
2018-02-18T18:04:15.574Z,22.20
2018-02-18T18:06:49.341Z,22.87
2018-02-18T18:09:23.863Z,23.70
2018-02-18T18:11:57.764Z,20.20
2018-02-18T18:14:31.647Z,20.33
2018-02-18T18:17:05.437Z,19.93
2018-02-18T18:19:39.174Z,20.13
2018-02-18T18:22:13.708Z,20.33
2018-02-18T18:24:49.127Z,19.93
2018-02-18T18:27:23.894Z,19.47
2018-02-18T18:29:58.740Z,20.53
2018-02-18T18:32:32.689Z,19.83
2018-02-18T18:35:07.436Z,19.47
2018-02-18T18:37:42.068Z,21.60
2018-02-18T18:40:16.501Z,20.90
2018-02-18T18:42:50.247Z,21.93
2018-02-18T18:45:24.312Z,20.03
2018-02-18T18:47:59.011Z,20.53
2018-02-18T18:50:33.102Z,19.27
2018-02-18T18:53:07.003Z,20.13
2018-02-18T18:55:40.796Z,19.77
2018-02-18T18:58:15.356Z,19.00
2018-02-18T19:00:49.281Z,19.10
2018-02-18T19:03:23.999Z,17.77
2018-02-18T19:05:58.571Z,17.73
2018-02-18T19:08:33.955Z,17.13
2018-02-18T19:11:08.790Z,18.67
2018-02-18T19:13:43.499Z,18.27
2018-02-18T19:16:17.577Z,16.53
2018-02-18T19:18:51.475Z,17.57
2018-02-18T19:21:26.163Z,17.50
2018-02-18T19:24:00.187Z,17.10
2018-02-18T19:26:34.346Z,17.10
2018-02-18T19:29:08.143Z,16.60
2018-02-18T19:31:42.010Z,18.73
2018-02-18T19:34:15.962Z,17.07
2018-02-18T19:36:49.936Z,16.53
2018-02-18T19:39:24.511Z,17.83
2018-02-18T19:41:58.582Z,17.77
2018-02-18T19:44:33.233Z,16.67
2018-02-18T19:47:08.043Z,16.23
2018-02-18T19:49:42.068Z,16.53
2018-02-18T19:52:16.162Z,17.47
2018-02-18T19:54:51.482Z,19.07
2018-02-18T19:57:25.544Z,19.03
2018-02-18T20:00:00.144Z,17.47
2018-02-18T20:02:34.089Z,16.90
2018-02-18T20:05:08.512Z,16.90
2018-02-18T20:07:42.611Z,16.73
2018-02-18T20:10:16.269Z,17.20
2018-02-18T20:12:50.553Z,17.60
2018-02-18T20:15:25.231Z,17.30
2018-02-18T20:17:59.179Z,16.67
2018-02-18T20:20:33.694Z,17.60
2018-02-18T20:23:08.351Z,17.53
2018-02-18T20:25:42.639Z,19.97
2018-02-18T20:28:16.783Z,17.63
2018-02-18T20:30:51.378Z,16.93
2018-02-18T20:33:27.131Z,17.53
2018-02-18T20:36:02.187Z,18.17
2018-02-18T20:38:36.186Z,18.73
2018-02-18T20:41:10.702Z,19.90
2018-02-18T20:43:44.585Z,18.73
2018-02-18T20:46:18.653Z,20.57
2018-02-18T20:48:52.531Z,19.80
2018-02-18T20:51:26.320Z,21.43
2018-02-18T20:54:00.319Z,19.83
2018-02-18T20:56:34.024Z,19.60
2018-02-18T20:59:07.844Z,19.67
2018-02-18T21:01:41.462Z,19.67
2018-02-18T21:04:15.455Z,18.77
2018-02-18T21:06:49.286Z,19.30
2018-02-18T21:09:23.034Z,19.40
2018-02-18T21:11:56.795Z,17.63
2018-02-18T21:14:30.724Z,18.83
2018-02-18T21:17:05.460Z,21.10
2018-02-18T21:19:39.827Z,21.00
2018-02-18T21:22:13.718Z,20.93
2018-02-18T21:24:47.593Z,22.40
2018-02-18T21:27:22.251Z,21.50
2018-02-18T21:29:57.023Z,20.60
2018-02-18T21:32:31.860Z,19.77
2018-02-18T21:35:07.139Z,19.97
2018-02-18T21:37:41.113Z,20.47
2018-02-18T21:40:15.319Z,20.60
2018-02-18T21:42:49.583Z,20.97
2018-02-18T21:45:23.753Z,18.10
2018-02-18T21:47:58.357Z,20.40
2018-02-18T21:50:32.181Z,21.03
2018-02-18T21:53:06.946Z,19.57
2018-02-18T21:55:40.948Z,19.93
2018-02-18T21:58:14.766Z,19.00
2018-02-18T22:00:49.360Z,18.70
2018-02-18T22:03:23.757Z,20.20
2018-02-18T22:05:58.252Z,19.27
2018-02-18T22:08:32.063Z,19.33
2018-02-18T22:11:06.003Z,20.47
2018-02-18T22:13:40.606Z,19.70
2018-02-18T22:16:14.927Z,19.90
2018-02-18T22:18:48.818Z,21.37
2018-02-18T22:21:22.752Z,21.70
2018-02-18T22:23:56.591Z,20.03
2018-02-18T22:26:31.235Z,21.80
2018-02-18T22:29:05.839Z,22.30
2018-02-18T22:31:39.948Z,20.20
2018-02-18T22:34:13.793Z,20.80
2018-02-18T22:36:48.548Z,20.47
2018-02-18T22:39:23.438Z,21.87
2018-02-18T22:41:58.848Z,22.53
2018-02-18T22:44:32.872Z,21.63
2018-02-18T22:47:06.579Z,22.10
2018-02-18T22:49:40.371Z,21.67
2018-02-18T22:52:14.173Z,20.77
2018-02-18T22:54:48.068Z,22.10
2018-02-18T22:57:22.070Z,21.03
2018-02-18T22:59:56.684Z,20.33
2018-02-18T23:02:31.247Z,22.00
2018-02-18T23:08:09.464Z,21.57
2018-02-18T23:10:43.583Z,19.77
2018-02-18T23:13:17.372Z,19.70
2018-02-18T23:15:55.680Z,19.13
2018-02-18T23:18:29.939Z,20.37
2018-02-18T23:21:09.407Z,19.93
2018-02-18T23:23:43.699Z,21.30
2018-02-18T23:26:17.627Z,23.47
2018-02-18T23:28:51.414Z,21.60
2018-02-18T23:31:25.118Z,26.13
2018-02-18T23:33:59.434Z,22.10
2018-02-18T23:36:33.468Z,25.77
2018-02-18T23:39:07.215Z,22.07
2018-02-18T23:41:41.637Z,17.90
2018-02-18T23:44:16.217Z,19.43
2018-02-18T23:46:49.922Z,20.53
2018-02-18T23:49:23.703Z,21.63
2018-02-18T23:51:57.315Z,21.37
2018-02-18T23:54:31.343Z,18.40
2018-02-18T23:57:05.070Z,20.77
2018-02-18T23:59:39.744Z,18.10
